Time;durP1;ratioP1;P1;durP2;ratioP2;P2;SDS_P1;SDS_P2;PMS_P1;PMS_P2;Temp;Humidity;BMP_temperature;BMP_pressure;BME280_temperature;BME280_humidity;BME280_pressure;Samples;Min_cycle;Max_cycle;Signal;HPM_P1;HPM_P2
2020/12/08 00:00:52;;;;;;;28.92;14.40;;;;;;;2.36;100.00;97264.72;5066529;28;20040;-87
2020/12/08 00:03:18;;;;;;;33.38;16.05;;;;;;;2.35;100.00;97273.56;5069112;28;20118;-87
2020/12/08 00:05:43;;;;;;;45.65;19.58;;;;;;;2.43;100.00;97275.94;5093813;28;20106;-87
2020/12/08 00:08:09;;;;;;;41.88;18.08;;;;;;;2.37;100.00;97274.34;5084449;28;20024;-86
2020/12/08 00:10:35;;;;;;;31.52;15.60;;;;;;;2.25;100.00;97277.41;5065955;28;20028;-86
2020/12/08 00:13:00;;;;;;;32.83;17.20;;;;;;;2.24;100.00;97286.25;5090259;28;20027;-86
2020/12/08 00:15:26;;;;;;;27.75;14.90;;;;;;;2.17;100.00;97282.09;5078465;28;20020;-86
2020/12/08 00:17:52;;;;;;;33.65;16.40;;;;;;;2.10;100.00;97283.19;5069625;28;20085;-86
2020/12/08 00:20:18;;;;;;;35.50;16.38;;;;;;;2.17;100.00;97279.44;5078342;28;20051;-88
2020/12/08 00:22:44;;;;;;;30.95;15.23;;;;;;;2.23;100.00;97284.53;5071001;28;20082;-86
2020/12/08 00:25:11;;;;;;;33.30;17.15;;;;;;;2.21;100.00;97282.84;5067898;28;20028;-85
2020/12/08 00:27:37;;;;;;;34.20;17.38;;;;;;;2.22;100.00;97288.06;5073104;28;20047;-87
2020/12/08 00:30:09;;;;;;;32.72;17.13;;;;;;;2.21;100.00;97286.34;5064991;28;20064;-87
2020/12/08 00:32:37;;;;;;;36.08;18.13;;;;;;;2.24;100.00;97291.53;5065800;28;20040;-87
2020/12/08 00:35:02;;;;;;;39.88;19.55;;;;;;;2.22;100.00;97288.06;5074581;28;20048;-87
2020/12/08 00:37:28;;;;;;;38.60;18.80;;;;;;;2.31;100.00;97289.56;5085854;28;20044;-87
2020/12/08 00:39:54;;;;;;;38.63;19.60;;;;;;;2.41;100.00;97289.19;5070018;28;20055;-87
2020/12/08 00:42:19;;;;;;;44.78;21.27;;;;;;;2.37;100.00;97292.81;5060096;28;20030;-87
2020/12/08 00:44:45;;;;;;;47.50;20.85;;;;;;;2.31;100.00;97303.59;5062903;28;20028;-86
2020/12/08 00:47:10;;;;;;;42.83;21.42;;;;;;;2.32;100.00;97289.50;5066008;28;20036;-88
2020/12/08 00:49:36;;;;;;;50.97;24.00;;;;;;;2.23;100.00;97292.44;5076834;28;20026;-87
2020/12/08 00:52:02;;;;;;;49.90;24.50;;;;;;;2.13;100.00;97277.81;5068332;28;20028;-87
2020/12/08 00:54:27;;;;;;;62.03;24.25;;;;;;;2.32;100.00;97294.75;5077095;28;20032;-87
2020/12/08 00:56:53;;;;;;;56.72;25.25;;;;;;;2.29;100.00;97300.16;5070187;28;20399;-87
2020/12/08 00:59:18;;;;;;;51.58;24.05;;;;;;;2.33;100.00;97298.28;5092796;28;20091;-87
2020/12/08 01:01:44;;;;;;;47.65;23.13;;;;;;;2.29;100.00;97297.50;5086669;28;20020;-86
2020/12/08 01:04:10;;;;;;;55.20;25.02;;;;;;;2.28;100.00;97287.84;5078413;28;20020;-87
2020/12/08 01:06:40;;;;;;;50.28;24.55;;;;;;;2.37;100.00;97302.53;5066385;28;20088;-88
2020/12/08 01:09:06;;;;;;;67.25;28.27;;;;;;;2.38;100.00;97304.25;5065951;28;20028;-88
2020/12/08 01:11:42;;;;;;;48.08;23.17;;;;;;;2.37;100.00;97307.81;5057264;28;20048;-88
2020/12/08 01:14:10;;;;;;;61.50;29.02;;;;;;;2.29;100.00;97284.31;5057694;28;20037;-88
2020/12/08 01:16:35;;;;;;;87.55;34.85;;;;;;;2.33;100.00;97307.06;5069219;28;20511;-88
2020/12/08 01:19:01;;;;;;;72.43;31.10;;;;;;;2.28;100.00;97293.13;5069446;28;20259;-87
2020/12/08 01:21:27;;;;;;;62.70;30.58;;;;;;;2.29;100.00;97294.00;5067382;28;20051;-88
2020/12/08 01:23:52;;;;;;;63.42;29.83;;;;;;;2.39;100.00;97292.78;5075367;28;20210;-86
2020/12/08 01:26:25;;;;;;;56.38;26.65;;;;;;;2.33;100.00;97293.00;5076399;28;20030;-87
2020/12/08 01:28:51;;;;;;;49.05;23.95;;;;;;;2.33;100.00;97295.63;5071409;28;20020;-87
2020/12/08 01:31:17;;;;;;;33.25;18.48;;;;;;;2.39;100.00;97296.28;5075699;28;20105;-87
2020/12/08 01:33:43;;;;;;;35.45;17.70;;;;;;;2.33;100.00;97299.13;5069066;28;20028;-87
2020/12/08 01:36:09;;;;;;;25.48;13.75;;;;;;;2.37;100.00;97290.19;5079028;28;20035;-87
2020/12/08 01:38:34;;;;;;;16.83;9.80;;;;;;;2.33;100.00;97304.41;5070626;28;20470;-86
2020/12/08 01:41:00;;;;;;;32.95;16.15;;;;;;;2.31;100.00;97303.59;5077077;28;20027;-87
2020/12/08 01:43:26;;;;;;;28.55;14.43;;;;;;;2.28;100.00;97295.78;5060858;28;20028;-88
2020/12/08 01:45:52;;;;;;;29.63;14.95;;;;;;;2.25;100.00;97298.50;5072260;28;20024;-87
2020/12/08 01:48:17;;;;;;;20.45;9.98;;;;;;;2.22;100.00;97298.63;5060205;28;20407;-86
2020/12/08 01:50:44;;;;;;;13.25;6.75;;;;;;;2.26;100.00;97309.94;5083169;28;20028;-85
2020/12/08 01:53:10;;;;;;;17.63;8.68;;;;;;;2.17;100.00;97303.19;5073614;28;20028;-86
2020/12/08 01:55:40;;;;;;;15.40;7.53;;;;;;;2.23;100.00;97302.13;5069832;28;20028;-86
2020/12/08 01:58:25;;;;;;;13.98;7.50;;;;;;;2.18;100.00;97308.41;5069308;28;20067;-87
2020/12/08 02:00:51;;;;;;;13.93;7.25;;;;;;;2.17;100.00;97300.56;5068350;28;20027;-87
2020/12/08 02:03:17;;;;;;;13.38;6.47;;;;;;;2.21;100.00;97304.81;5063225;28;20058;-86
2020/12/08 02:05:46;;;;;;;10.10;5.30;;;;;;;2.21;100.00;97301.31;5072959;28;20024;-87
2020/12/08 02:08:12;;;;;;;11.45;5.68;;;;;;;2.22;100.00;97308.31;5081194;28;20031;-87
2020/12/08 02:10:38;;;;;;;12.48;6.57;;;;;;;2.24;100.00;97306.50;5071360;28;20031;-88
2020/12/08 02:13:10;;;;;;;11.13;6.43;;;;;;;2.19;100.00;97304.00;5074285;28;20029;-86
2020/12/08 02:15:37;;;;;;;9.63;6.15;;;;;;;2.20;100.00;97300.47;5069042;28;20047;-86
2020/12/08 02:18:03;;;;;;;12.23;5.82;;;;;;;2.30;100.00;97301.88;5083359;28;20020;-87
2020/12/08 02:20:28;;;;;;;14.25;6.40;;;;;;;2.34;100.00;97306.13;5078151;28;20067;-87
2020/12/08 02:22:55;;;;;;;12.88;6.72;;;;;;;2.36;100.00;97304.31;5060685;28;20044;-86
2020/12/08 02:25:21;;;;;;;14.23;7.03;;;;;;;2.38;100.00;97299.84;5077874;28;20023;-86
2020/12/08 02:27:47;;;;;;;15.27;8.13;;;;;;;2.37;100.00;97305.19;5072112;28;20547;-88
2020/12/08 02:30:12;;;;;;;13.32;7.35;;;;;;;2.27;100.00;97296.72;5071864;28;20045;-87
2020/12/08 02:32:38;;;;;;;16.95;9.20;;;;;;;2.33;100.00;97303.56;5067918;28;20479;-87
2020/12/08 02:35:04;;;;;;;15.90;8.13;;;;;;;2.33;100.00;97301.78;5059388;28;20040;-86
2020/12/08 02:37:29;;;;;;;18.00;9.60;;;;;;;2.32;100.00;97305.31;5067037;28;20028;-86
2020/12/08 02:39:55;;;;;;;21.27;10.93;;;;;;;2.33;100.00;97303.56;5073212;28;20062;-87
2020/12/08 02:42:21;;;;;;;25.77;12.05;;;;;;;2.22;100.00;97298.63;5063970;28;20036;-87
2020/12/08 02:44:46;;;;;;;26.25;12.65;;;;;;;2.23;100.00;97300.34;5072044;28;20038;-87
2020/12/08 02:47:12;;;;;;;24.15;11.60;;;;;;;2.23;100.00;97297.72;5090096;28;20028;-87
2020/12/08 02:49:37;;;;;;;30.38;12.48;;;;;;;2.29;100.00;97302.78;5071563;28;20039;-87
2020/12/08 02:52:03;;;;;;;24.08;12.32;;;;;;;2.29;100.00;97305.44;5074382;28;20185;-87
2020/12/08 02:54:29;;;;;;;21.90;10.45;;;;;;;2.23;100.00;97297.72;5069632;28;20043;-86
2020/12/08 02:56:54;;;;;;;22.80;11.00;;;;;;;2.25;100.00;97303.78;5071561;28;20036;-86
2020/12/08 02:59:21;;;;;;;25.38;12.60;;;;;;;2.22;100.00;97300.38;5079638;28;20411;-85
2020/12/08 03:01:47;;;;;;;23.17;11.45;;;;;;;2.26;100.00;97305.53;5067352;28;20107;-84
2020/12/08 03:04:13;;;;;;;20.05;10.98;;;;;;;2.26;100.00;97304.66;5057122;28;20067;-84
2020/12/08 03:06:42;;;;;;;28.15;14.20;;;;;;;2.32;100.00;97299.19;5073183;28;20067;-84
2020/12/08 03:09:08;;;;;;;23.50;12.40;;;;;;;2.39;100.00;97320.03;5064634;28;20050;-84
2020/12/08 03:11:33;;;;;;;23.63;12.20;;;;;;;2.34;100.00;97303.47;5066134;28;20032;-84
2020/12/08 03:13:59;;;;;;;22.50;11.50;;;;;;;2.35;100.00;97314.91;5071797;28;20032;-83
2020/12/08 03:16:24;;;;;;;23.00;11.05;;;;;;;2.26;100.00;97321.34;5073027;28;20032;-84
2020/12/08 03:18:50;;;;;;;23.25;11.35;;;;;;;2.20;100.00;97316.28;5085014;28;20028;-84
2020/12/08 03:21:16;;;;;;;21.55;11.02;;;;;;;2.18;100.00;97320.75;5070335;28;20024;-81
2020/12/08 03:23:41;;;;;;;19.75;10.70;;;;;;;2.25;100.00;97321.38;5092855;28;20111;-81
2020/12/08 03:26:07;;;;;;;18.92;9.68;;;;;;;2.30;100.00;97328.28;5062486;28;20356;-81
2020/12/08 03:28:32;;;;;;;19.42;11.27;;;;;;;2.31;100.00;97335.25;5076122;28;20085;-80
2020/12/08 03:30:58;;;;;;;26.33;12.55;;;;;;;2.30;100.00;97332.69;5069162;28;20055;-81
2020/12/08 03:33:24;;;;;;;27.52;13.65;;;;;;;2.28;100.00;97335.34;5067575;28;20035;-81
2020/12/08 03:35:50;;;;;;;25.02;12.52;;;;;;;2.23;100.00;97332.00;5065237;28;20031;-81
2020/12/08 03:38:15;;;;;;;21.42;11.45;;;;;;;2.17;100.00;97332.22;5057612;28;20107;-81
2020/12/08 03:40:43;;;;;;;24.92;13.68;;;;;;;1.85;100.00;97338.50;5083190;28;20448;-82
2020/12/08 03:43:09;;;;;;;24.77;12.75;;;;;;;1.88;100.00;97340.16;5069238;28;20035;-82
2020/12/08 03:45:35;;;;;;;22.92;12.20;;;;;;;1.98;100.00;97344.25;5085467;28;20033;-81
2020/12/08 03:48:00;;;;;;;18.65;10.27;;;;;;;1.96;100.00;97346.09;5076407;28;20028;-81
2020/12/08 03:50:26;;;;;;;20.67;11.15;;;;;;;1.97;100.00;97346.03;5092410;28;20062;-80
2020/12/08 03:52:52;;;;;;;18.77;10.13;;;;;;;2.01;100.00;97331.84;5089766;28;20055;-81
2020/12/08 03:55:17;;;;;;;18.98;10.65;;;;;;;2.03;100.00;97347.63;5062033;28;20043;-80
2020/12/08 03:57:43;;;;;;;20.23;9.93;;;;;;;2.07;100.00;97342.19;5057240;28;20487;-81
2020/12/08 04:00:09;;;;;;;16.52;8.30;;;;;;;2.06;100.00;97344.91;5071752;28;20173;-81
2020/12/08 04:02:35;;;;;;;11.48;6.93;;;;;;;2.12;100.00;97356.09;5084421;28;20017;-80
2020/12/08 04:05:01;;;;;;;9.90;6.10;;;;;;;2.06;100.00;97358.09;5071137;28;20048;-80
2020/12/08 04:07:27;;;;;;;12.95;6.32;;;;;;;2.07;100.00;97365.94;5071585;28;20036;-81
2020/12/08 04:09:53;;;;;;;20.13;9.27;;;;;;;2.02;100.00;97359.06;5074888;28;20035;-80
2020/12/08 04:12:19;;;;;;;15.93;8.02;;;;;;;2.07;100.00;97363.28;5083739;28;20012;-81
2020/12/08 04:14:45;;;;;;;12.73;7.03;;;;;;;2.09;100.00;97360.63;5091666;28;20055;-80
2020/12/08 04:17:10;;;;;;;12.55;7.70;;;;;;;2.08;100.00;97364.16;5084008;28;20451;-81
2020/12/08 04:19:36;;;;;;;12.38;7.38;;;;;;;2.06;100.00;97355.44;5083792;28;20023;-81
2020/12/08 04:22:02;;;;;;;9.13;5.55;;;;;;;2.12;100.00;97355.25;5083645;28;20119;-81
2020/12/08 04:24:27;;;;;;;10.77;6.15;;;;;;;2.15;100.00;97368.34;5067500;28;20028;-80
2020/12/08 04:26:53;;;;;;;10.23;6.10;;;;;;;2.14;100.00;97367.47;5074099;28;20093;-81
2020/12/08 04:29:19;;;;;;;9.70;6.00;;;;;;;2.12;100.00;97373.72;5073966;28;20027;-81
2020/12/08 04:31:44;;;;;;;13.45;7.63;;;;;;;2.10;100.00;97371.09;5081375;28;20040;-82
2020/12/08 04:34:10;;;;;;;17.65;8.18;;;;;;;1.98;100.00;97368.84;5054992;28;20028;-80
2020/12/08 04:36:36;;;;;;;9.25;5.15;;;;;;;1.78;100.00;97371.25;5079742;28;20119;-81
2020/12/08 04:39:01;;;;;;;13.18;6.18;;;;;;;1.80;100.00;97364.16;5064111;28;20457;-82
2020/12/08 04:41:27;;;;;;;11.00;6.40;;;;;;;1.90;100.00;97377.91;5055275;28;20028;-80
2020/12/08 04:43:53;;;;;;;10.63;6.20;;;;;;;1.94;100.00;97371.66;5054414;28;20127;-80
2020/12/08 04:46:24;;;;;;;17.42;8.90;;;;;;;1.92;100.00;97369.03;5054059;28;20102;-81
2020/12/08 04:48:51;;;;;;;27.63;11.98;;;;;;;1.93;100.00;97362.88;5064919;28;20139;-80
2020/12/08 04:51:17;;;;;;;18.70;9.52;;;;;;;1.97;100.00;97371.56;5061036;28;20507;-80
2020/12/08 04:53:42;;;;;;;19.02;10.32;;;;;;;1.97;100.00;97361.00;5070316;28;20036;-81
2020/12/08 04:56:08;;;;;;;17.85;9.43;;;;;;;2.00;100.00;97359.09;5081206;28;20101;-81
2020/12/08 04:58:34;;;;;;;18.40;9.45;;;;;;;2.02;100.00;97357.31;5070862;28;20082;-80
2020/12/08 05:01:00;;;;;;;14.60;8.05;;;;;;;1.92;100.00;97355.00;5057146;28;20031;-80
2020/12/08 05:03:27;;;;;;;14.15;8.05;;;;;;;1.91;100.00;97353.25;5065748;28;20024;-81
2020/12/08 05:05:53;;;;;;;14.45;8.55;;;;;;;1.95;100.00;97366.31;5073683;28;20181;-81
2020/12/08 05:08:19;;;;;;;15.35;7.65;;;;;;;1.99;100.00;97359.19;5077822;28;20132;-80
2020/12/08 05:10:49;;;;;;;14.70;8.10;;;;;;;2.03;100.00;97366.94;5054044;28;20044;-80
2020/12/08 05:13:27;;;;;;;17.45;10.43;;;;;;;2.00;100.00;97360.91;5075455;28;20507;-82
2020/12/08 05:15:59;;;;;;;21.05;9.50;;;;;;;2.04;100.00;97360.75;5068518;28;20486;-79
2020/12/08 05:18:24;;;;;;;20.02;10.77;;;;;;;1.97;100.00;97367.13;5087445;28;20061;-79
2020/12/08 05:20:51;;;;;;;25.17;13.40;;;;;;;1.93;100.00;97367.28;5082735;28;20036;-81
2020/12/08 05:23:16;;;;;;;17.73;9.75;;;;;;;1.81;100.00;97365.03;5059881;28;20036;-83
2020/12/08 05:25:45;;;;;;;20.98;11.43;;;;;;;1.77;100.00;97371.28;5068295;28;20068;-85
2020/12/08 05:28:19;;;;;;;18.55;10.65;;;;;;;1.81;100.00;97363.25;5069119;28;20110;-84
2020/12/08 05:30:49;;;;;;;32.83;13.68;;;;;;;1.96;100.00;97380.38;5068158;28;20079;-83
2020/12/08 05:33:17;;;;;;;24.48;13.10;;;;;;;1.90;100.00;97375.28;5073384;28;20476;-83
2020/12/08 05:35:45;;;;;;;22.77;12.60;;;;;;;1.81;100.00;97384.34;5070341;28;20427;-82
2020/12/08 05:38:13;;;;;;;26.42;13.95;;;;;;;1.84;100.00;97380.75;5062307;28;20035;-81
2020/12/08 05:40:43;;;;;;;12.10;6.57;;;;;;;1.79;100.00;97380.00;5062852;28;20028;-83
2020/12/08 05:43:09;;;;;;;11.25;6.05;;;;;;;1.77;100.00;97390.59;5059181;28;20035;-81
2020/12/08 05:45:36;;;;;;;12.32;7.13;;;;;;;1.75;100.00;97381.03;5057902;28;20062;-81
2020/12/08 05:48:02;;;;;;;11.38;6.90;;;;;;;1.87;100.00;97385.94;5073977;28;20028;-81
2020/12/08 05:50:28;;;;;;;10.43;6.60;;;;;;;1.91;100.00;97395.44;5074948;28;20032;-82
2020/12/08 05:53:15;;;;;;;9.50;6.38;;;;;;;1.95;100.00;97389.19;5074409;28;20035;-81
2020/12/08 05:55:41;;;;;;;18.85;10.60;;;;;;;1.91;100.00;97390.16;5074642;28;20075;-81
2020/12/08 05:58:09;;;;;;;22.30;11.30;;;;;;;1.99;100.00;97396.97;5073724;28;20491;-82
2020/12/08 06:00:36;;;;;;;25.05;12.95;;;;;;;1.98;100.00;97395.22;5057449;28;20028;-82
2020/12/08 06:03:13;;;;;;;22.63;12.38;;;;;;;2.03;100.00;97400.38;5068415;28;20088;-82
2020/12/08 06:05:44;;;;;;;31.75;15.73;;;;;;;2.03;100.00;97401.22;5073217;28;20040;-82
2020/12/08 06:08:20;;;;;;;28.55;13.10;;;;;;;1.88;100.00;97408.72;5066587;28;20039;-81
2020/12/08 06:11:09;;;;;;;;;;;;;;;;;;;;;
2020/12/08 06:14:21;;;;;;;37.63;16.55;;;;;;;1.52;100.00;97343.03;5094440;28;20099;-83
2020/12/08 06:17:19;;;;;;;22.85;10.55;;;;;;;1.41;100.00;97350.41;5076904;28;20091;-83
2020/12/08 06:20:09;;;;;;;14.07;8.27;;;;;;;1.77;100.00;97408.19;5002617;28;20116;-83
2020/12/08 06:22:35;;;;;;;21.50;9.88;;;;;;;1.79;100.00;97401.97;5001682;28;20036;-82
2020/12/08 06:28:08;;;;;;;22.90;10.38;;;;;;;1.54;100.00;97369.31;5077244;28;20062;-81
2020/12/08 06:31:10;;;;;;;32.03;14.07;;;;;;;1.98;100.00;97423.38;5081786;28;20118;-80
2020/12/08 06:34:31;;;;;;;24.00;11.13;;;;;;;1.68;100.00;97388.25;5072652;28;20044;-82
2020/12/08 06:37:33;;;;;;;;;;;;;;;;;;;;;
2020/12/08 06:40:34;;;;;;;28.45;12.73;;;;;;;1.95;100.00;97426.09;5057665;28;20115;-83
2020/12/08 06:46:28;;;;;;;33.08;14.65;;;;;;;1.79;100.00;97388.78;5087552;28;20024;-83
2020/12/08 06:53:04;;;;;;;;;;;;;;;;;;;;;
2020/12/08 06:56:26;;;;;;;17.65;10.48;;;;;;;1.80;100.00;97405.47;5080265;28;20111;-82
2020/12/08 06:59:41;;;;;;;22.83;11.05;;;;;;;1.91;100.00;97419.19;5060539;28;20032;-84
2020/12/08 07:02:13;;;;;;;20.25;11.20;;;;;;;2.22;99.96;97456.91;5026658;28;20137;-83
2020/12/08 07:04:51;;;;;;;14.30;7.78;;;;;;;1.92;99.11;97410.38;5009417;28;20035;-82
2020/12/08 07:10:56;;;;;;;30.98;14.90;;;;;;;2.32;100.00;97462.78;5017018;28;20413;-82
2020/12/08 07:13:28;;;;;;;31.45;16.60;;;;;;;2.05;99.49;97403.81;5038976;28;20049;-82
2020/12/08 07:15:59;;;;;;;17.02;9.27;;;;;;;2.44;99.45;97473.81;5011125;28;20049;-82
2020/12/08 07:18:31;;;;;;;19.98;10.77;;;;;;;2.00;99.36;97398.66;5002485;28;20132;-83
2020/12/08 07:21:41;;;;;;;18.50;9.48;;;;;;;1.94;98.72;97398.84;5037062;28;20519;-83
2020/12/08 07:24:33;;;;;;;;;;;;;;;;;;;;;
2020/12/08 07:27:21;;;;;;;18.23;9.90;;;;;;;2.32;99.09;97479.47;5062205;28;20112;-82
2020/12/08 07:34:13;;;;;;;10.55;6.32;;;;;;;2.51;98.11;97493.84;5077243;28;20526;-83
2020/12/08 07:36:51;;;;;;;15.85;8.90;;;;;;;2.39;96.96;97485.44;5080006;28;20044;-84
2020/12/08 07:39:21;;;;;;;14.73;8.85;;;;;;;2.32;96.99;97457.50;5073984;28;20032;-84
2020/12/08 07:42:00;;;;;;;9.15;4.93;;;;;;;2.39;94.90;97459.91;5075662;28;20073;-83
2020/12/08 07:44:52;;;;;;;12.45;7.85;;;;;;;2.38;94.71;97452.91;5044579;28;20055;-83
2020/12/08 07:47:25;;;;;;;18.02;9.75;;;;;;;2.36;96.32;97452.09;5061453;28;20058;-82
2020/12/08 07:50:20;;;;;;;25.15;12.90;;;;;;;2.74;96.87;97503.66;5077976;28;20039;-83
2020/12/08 07:53:11;;;;;;;12.68;7.05;;;;;;;2.58;94.46;97502.44;5072555;28;20048;-82
2020/12/08 07:56:06;;;;;;;24.40;10.80;;;;;;;2.97;94.94;97501.16;5071339;28;20516;-83
2020/12/08 07:58:31;;;;;;;33.58;15.38;;;;;;;2.69;94.17;97463.34;5063222;28;20066;-83
2020/12/08 08:01:06;;;;;;;28.52;14.05;;;;;;;3.00;93.98;97468.47;5065481;28;20451;-81
2020/12/08 08:03:35;;;;;;;25.88;14.73;;;;;;;2.57;92.66;97443.50;5060470;28;20054;-83
2020/12/08 08:06:00;;;;;;;17.55;8.65;;;;;;;2.89;94.29;97494.41;5056476;28;20050;-82
2020/12/08 08:08:34;;;;;;;18.17;8.63;;;;;;;3.15;92.20;97491.75;5074445;28;20088;-81
2020/12/08 08:11:07;;;;;;;14.73;8.35;;;;;;;3.16;91.96;97485.56;5065193;28;20024;-83
2020/12/08 08:14:09;;;;;;;20.65;10.85;;;;;;;3.30;90.14;97483.28;5072769;28;20028;-82
2020/12/08 08:16:50;;;;;;;21.33;10.13;;;;;;;3.34;89.24;97470.84;5063834;28;20058;-81
2020/12/08 08:19:22;;;;;;;14.98;8.57;;;;;;;3.79;88.84;97507.09;5058533;28;20081;-81
2020/12/08 08:21:50;;;;;;;19.02;10.02;;;;;;;3.66;88.62;97479.34;5069385;28;20024;-82
2020/12/08 08:24:24;;;;;;;13.55;7.32;;;;;;;4.05;87.60;97524.69;5064632;28;20040;-83
2020/12/08 08:26:50;;;;;;;13.77;7.60;;;;;;;4.01;87.31;97486.03;5087513;28;20479;-82
2020/12/08 08:29:38;;;;;;;;;;;;;;;;;;;;;
2020/12/08 08:32:22;;;;;;;14.23;8.23;;;;;;;4.54;82.77;97502.53;5066929;28;20111;-82
2020/12/08 08:34:48;;;;;;;12.50;6.97;;;;;;;4.92;81.64;97522.22;5083342;28;20115;-83
2020/12/08 08:37:37;;;;;;;8.18;5.18;;;;;;;5.29;78.80;97510.97;5065611;28;20487;-82
2020/12/08 08:40:07;;;;;;;13.18;7.35;;;;;;;5.34;78.37;97491.28;5081273;28;20076;-81
2020/12/08 08:42:33;;;;;;;9.43;6.05;;;;;;;4.82;79.17;97487.28;5075670;28;20097;-81
2020/12/08 08:48:24;;;;;;;13.50;6.57;;;;;;;4.43;81.01;97496.75;5076298;28;20195;-82
2020/12/08 08:51:13;;;;;;;9.70;5.35;;;;;;;4.59;81.01;97515.56;5041823;28;20033;-83
2020/12/08 08:53:45;;;;;;;5.93;3.90;;;;;;;4.43;81.55;97510.00;5030829;28;20461;-82
2020/12/08 08:56:11;;;;;;;16.58;8.65;;;;;;;4.44;82.81;97519.69;5068731;28;20025;-83
2020/12/08 08:58:43;;;;;;;10.75;6.18;;;;;;;4.06;83.01;97486.69;5090737;28;20042;-85
2020/12/08 09:01:08;;;;;;;5.70;3.75;;;;;;;4.17;84.30;97491.59;5070429;28;20032;-87
2020/12/08 09:03:34;;;;;;;10.18;6.30;;;;;;;4.37;83.78;97497.00;5084277;28;20040;-88
2020/12/08 09:06:00;;;;;;;15.35;8.35;;;;;;;4.36;84.99;97492.66;5071718;28;20062;-87
2020/12/08 09:08:25;;;;;;;13.93;8.43;;;;;;;4.36;81.90;97495.28;5074790;28;20039;-88
2020/12/08 09:10:52;;;;;;;28.92;13.75;;;;;;;4.33;83.63;97495.41;5063918;28;20092;-87
2020/12/08 09:13:18;;;;;;;16.27;8.77;;;;;;;4.74;79.64;97492.00;5067996;28;20070;-87
2020/12/08 09:15:44;;;;;;;8.68;5.50;;;;;;;5.00;78.33;97485.66;5076547;28;20033;-85
2020/12/08 09:18:10;;;;;;;9.52;5.55;;;;;;;5.00;77.80;97479.50;5071010;28;20036;-85
2020/12/08 09:20:36;;;;;;;14.65;6.63;;;;;;;5.02;78.05;97496.19;5072249;28;20058;-87
2020/12/08 09:23:01;;;;;;;13.55;6.35;;;;;;;5.16;77.98;97483.25;5063534;28;20032;-86
2020/12/08 09:25:28;;;;;;;15.80;8.32;;;;;;;5.36;76.67;97478.81;5055934;28;20028;-82
2020/12/08 09:27:55;;;;;;;10.48;5.82;;;;;;;5.17;76.74;97491.09;5056932;28;20060;-80
2020/12/08 09:30:21;;;;;;;12.98;7.57;;;;;;;5.27;77.78;97496.91;5063125;28;20059;-82
2020/12/08 09:32:47;;;;;;;16.85;7.05;;;;;;;5.29;76.09;97492.41;5057924;28;20033;-82
2020/12/08 09:35:13;;;;;;;36.40;15.48;;;;;;;4.50;77.97;97481.50;5058452;28;20044;-81
2020/12/08 09:37:39;;;;;;;23.90;12.65;;;;;;;4.43;81.76;97491.47;5055586;28;20483;-83
2020/12/08 09:40:04;;;;;;;12.52;8.18;;;;;;;4.26;81.95;97499.19;5095707;28;20028;-84
2020/12/08 09:42:30;;;;;;;14.13;7.95;;;;;;;4.50;82.05;97503.56;5072033;28;20029;-85
2020/12/08 09:44:57;;;;;;;8.30;5.43;;;;;;;4.53;82.22;97497.28;5073381;28;20032;-85
2020/12/08 09:47:22;;;;;;;11.65;7.13;;;;;;;4.69;80.49;97496.63;5095949;28;20035;-85
2020/12/08 09:53:10;;;;;;;25.95;14.05;;;;;;;4.42;81.51;97502.13;5096007;28;20139;-83
2020/12/08 09:55:35;;;;;;;22.25;12.63;;;;;;;4.34;82.96;97513.00;5096491;28;20105;-81
2020/12/08 09:58:01;;;;;;;45.05;23.75;;;;;;;4.56;83.40;97497.16;5078140;28;20051;-83
2020/12/08 10:00:26;;;;;;;26.92;15.52;;;;;;;4.61;83.05;97501.38;5077240;28;20103;-82
2020/12/08 10:02:52;;;;;;;31.35;16.35;;;;;;;4.53;84.60;97492.84;5093981;28;20028;-81
2020/12/08 10:05:18;;;;;;;8.63;5.85;;;;;;;4.66;82.50;97499.41;5096169;28;20187;-82
2020/12/08 10:07:43;;;;;;;15.02;9.82;;;;;;;4.53;82.00;97484.91;5077604;28;20067;-83
2020/12/08 10:10:09;;;;;;;9.80;6.15;;;;;;;4.55;82.41;97501.63;5103499;28;20020;-83
2020/12/08 10:12:35;;;;;;;14.40;8.95;;;;;;;4.57;82.19;97489.16;5096441;28;20545;-82
2020/12/08 10:15:00;;;;;;;23.63;15.25;;;;;;;4.88;81.93;97494.09;5080742;28;20020;-83
2020/12/08 10:17:26;;;;;;;21.65;11.77;;;;;;;4.85;83.81;97483.63;5080541;28;20407;-80
2020/12/08 10:19:51;;;;;;;17.42;9.35;;;;;;;4.63;84.28;97494.22;5078780;28;20468;-82
2020/12/08 10:22:17;;;;;;;18.38;10.65;;;;;;;4.64;82.34;97490.66;5078727;28;20028;-82
2020/12/08 10:24:43;;;;;;;21.60;11.55;;;;;;;4.45;84.89;97489.66;5079591;28;20020;-81
2020/12/08 10:27:09;;;;;;;13.45;7.22;;;;;;;4.31;85.35;97492.81;5079613;28;20085;-80
2020/12/08 10:29:37;;;;;;;13.13;7.72;;;;;;;4.34;83.59;97500.63;5066093;28;20032;-77
2020/12/08 10:32:03;;;;;;;13.32;7.95;;;;;;;3.73;84.89;97486.16;5085275;28;20043;-81
2020/12/08 10:34:28;;;;;;;13.32;7.78;;;;;;;3.84;84.77;97497.22;5063111;28;20033;-81
2020/12/08 10:36:54;;;;;;;16.45;9.85;;;;;;;4.02;85.24;97489.53;5061655;28;20404;-79
2020/12/08 10:39:20;;;;;;;26.77;14.45;;;;;;;4.29;83.61;97497.31;5067719;28;20036;-82
2020/12/08 10:41:45;;;;;;;23.95;13.18;;;;;;;4.33;83.34;97492.75;5061449;28;20111;-82
2020/12/08 10:44:11;;;;;;;17.02;9.57;;;;;;;4.37;84.31;97481.97;5079460;28;20028;-81
2020/12/08 10:46:37;;;;;;;34.28;19.13;;;;;;;4.44;83.00;97487.91;5068327;28;20058;-82
2020/12/08 10:49:04;;;;;;;38.45;21.20;;;;;;;4.25;84.20;97479.81;5081896;28;20024;-82
2020/12/08 10:51:30;;;;;;;20.42;10.65;;;;;;;4.31;83.36;97481.34;5065027;28;20464;-82
2020/12/08 10:53:55;;;;;;;30.83;15.88;;;;;;;4.22;84.96;97471.09;5071498;28;20024;-84
2020/12/08 10:56:22;;;;;;;31.85;13.18;;;;;;;4.22;82.55;97471.09;5094961;28;20115;-87
2020/12/08 10:58:49;;;;;;;24.13;12.95;;;;;;;4.20;83.40;97472.97;5086595;28;20044;-82
2020/12/08 11:01:25;;;;;;;20.88;11.60;;;;;;;4.13;83.44;97474.97;5095932;28;20029;-91
2020/12/08 11:03:52;;;;;;;17.80;10.00;;;;;;;4.19;83.05;97458.88;5103614;28;20024;-88
2020/12/08 11:06:22;;;;;;;32.75;17.23;;;;;;;4.20;83.72;97475.63;5070727;28;20024;-88
2020/12/08 11:08:48;;;;;;;74.85;33.35;;;;;;;4.25;84.69;97481.59;5092900;28;20062;-88
2020/12/08 11:11:23;;;;;;;38.13;15.73;;;;;;;4.23;84.34;97478.13;5078276;28;20024;-87
2020/12/08 11:13:49;;;;;;;22.92;12.85;;;;;;;4.29;84.15;97468.19;5077542;28;20101;-87
2020/12/08 11:16:15;;;;;;;20.23;10.77;;;;;;;4.39;83.05;97463.41;5072003;28;20103;-88
2020/12/08 11:18:42;;;;;;;48.97;20.92;;;;;;;4.47;83.74;97466.59;5069362;28;20412;-86
2020/12/08 11:21:07;;;;;;;15.98;9.00;;;;;;;4.33;82.50;97464.50;5085900;28;20062;-88
2020/12/08 11:23:33;;;;;;;11.70;7.50;;;;;;;4.36;81.05;97456.44;5084158;28;20025;-89
2020/12/08 11:25:59;;;;;;;24.27;11.13;;;;;;;4.41;81.88;97450.09;5077582;28;20452;-88
2020/12/08 11:28:24;;;;;;;20.50;10.68;;;;;;;4.54;81.92;97467.22;5095181;28;20043;-87
2020/12/08 11:30:50;;;;;;;23.70;11.20;;;;;;;4.65;81.54;97467.66;5074489;28;20041;-88
2020/12/08 11:33:16;;;;;;;30.63;17.83;;;;;;;4.59;81.19;97459.94;5066236;28;20025;-88
2020/12/08 11:35:42;;;;;;;51.63;24.98;;;;;;;4.58;81.54;97459.13;5082300;28;20046;-89
2020/12/08 11:38:07;;;;;;;19.95;11.80;;;;;;;4.62;79.94;97444.81;5077508;28;20056;-88
2020/12/08 11:40:33;;;;;;;22.67;12.98;;;;;;;4.48;81.37;97463.03;5072166;28;20058;-88
2020/12/08 11:42:59;;;;;;;23.23;13.05;;;;;;;4.61;80.15;97466.06;5063125;28;20032;-87
2020/12/08 11:45:24;;;;;;;21.95;12.40;;;;;;;4.54;82.92;97461.94;5075801;28;20040;-88
2020/12/08 11:47:50;;;;;;;24.27;14.52;;;;;;;4.74;81.74;97454.03;5078221;28;20070;-88
2020/12/08 11:50:16;;;;;;;23.58;13.00;;;;;;;4.89;82.76;97462.22;5080968;28;20031;-88
2020/12/08 11:52:41;;;;;;;23.08;13.27;;;;;;;4.83;83.66;97481.03;5091362;28;20025;-88
2020/12/08 11:55:07;;;;;;;23.08;12.32;;;;;;;4.80;82.19;97475.84;5071973;28;20123;-88
2020/12/08 11:57:33;;;;;;;28.35;15.35;;;;;;;4.86;83.00;97486.19;5068342;28;20520;-87
2020/12/08 11:59:59;;;;;;;19.05;11.15;;;;;;;4.65;81.85;97484.41;5071232;28;20028;-87
2020/12/08 12:02:25;;;;;;;18.60;10.32;;;;;;;4.68;82.44;97481.66;5095968;28;20035;-88
2020/12/08 12:04:50;;;;;;;21.23;9.82;;;;;;;4.43;83.67;97477.38;5064104;28;20701;-88
2020/12/08 12:07:16;;;;;;;18.75;10.05;;;;;;;4.38;82.56;97466.97;5066315;28;20167;-87